Climatologie pour Saint-Brevin les Pins
Jour • Résumé pour mai 25, 2017 Système :  Métrique    Anglais   Mixte
« - 1 jour
+ 1 jour »
Jour Semaine Mois Année Personnalisé
  Maximum : Minimum : Moyenne :
Température sous abri : -17.8 °C -10.7 °C -5.6 °C
Point de rosée : -17.8 °C -11 °C -9.1 °C
Humidité : Humidity % 42 % 70 %
Vitesse du vent : 0 km/h 0 km/h 12.4 km/h
Rafale : 0 km/h - -
Direction :- - East
Pression : 0 hPa 34313.7 hPa -
Précipitations : 0 mm    
Historical Graphs
 
 
Tableau de données pour mai 25, 2017
Heure Tempé Pt rosée Pression Vent Vitesse Rafale Humidité Taux pluie (/hr) Soleil
-17.8 °C -17.8 °C 0 hPa Calm     Humidity % 0 mm SolarRadiationWatts/m^2 W/m2 Conditions
00:00 -6.8 °C -8.8 °C 34567.7 hPa East 15.6 km/h 28.5 km/h 80 % 0 mm 0 W/m2
00:10 -6.9 °C -8.8 °C 34567.7 hPa ENE 5.1 km/h 28.5 km/h 81 % 0 mm 0 W/m2
00:15 -7 °C -8.8 °C 34567.7 hPa East 12.9 km/h 31.1 km/h 81 % 0 mm 0 W/m2
00:20 -7.1 °C -8.9 °C 34567.7 hPa East 5.1 km/h 31.1 km/h 81 % 0 mm 0 W/m2
00:25 -7.1 °C -8.8 °C 34567.7 hPa ENE 18.2 km/h 25.9 km/h 82 % 0 mm 0 W/m2
00:30 -7.1 °C -8.9 °C 34567.7 hPa ENE 5.1 km/h 25.9 km/h 82 % 0 mm 0 W/m2
00:35 -7.1 °C -8.9 °C 34567.7 hPa East 7.7 km/h 23.3 km/h 82 % 0 mm 0 W/m2
00:40 -7.1 °C -8.9 °C 34567.7 hPa East 12.9 km/h 25.9 km/h 82 % 0 mm 0 W/m2
00:45 -7.2 °C -8.9 °C 34567.7 hPa ENE 5.1 km/h 25.9 km/h 82 % 0 mm 0 W/m2
00:50 -7.3 °C -8.9 °C 34567.7 hPa East 7.7 km/h 20.8 km/h 83 % 0 mm 0 W/m2
00:55 -7.3 °C -8.9 °C 34567.7 hPa East 7.7 km/h 25.9 km/h 83 % 0 mm 0 W/m2
01:05 -7.3 °C -9 °C 34567.7 hPa East 15.6 km/h 25.9 km/h 83 % 0 mm 0 W/m2
01:10 -7.4 °C -8.9 °C 34567.7 hPa ENE 2.6 km/h 25.9 km/h 84 % 0 mm 0 W/m2
01:15 -7.4 °C -9 °C 34567.7 hPa ESE 7.7 km/h 20.8 km/h 84 % 0 mm 0 W/m2
01:20 -7.6 °C -9.1 °C 34554.1 hPa East 12.9 km/h 20.8 km/h 84 % 0 mm 0 W/m2
01:25 -7.6 °C -9 °C 34554.1 hPa ENE 12.9 km/h 18.2 km/h 85 % 0 mm 0 W/m2
01:35 -7.7 °C -9.1 °C 34554.1 hPa East 5.1 km/h 23.3 km/h 86 % 0 mm 0 W/m2
01:40 -7.8 °C -9.1 °C 34554.1 hPa ENE 7.7 km/h 20.8 km/h 86 % 0 mm 0 W/m2
01:45 -7.8 °C -9.2 °C 34554.1 hPa East 7.7 km/h 18.2 km/h 86 % 0 mm 0 W/m2
01:50 -7.9 °C -9.1 °C 34554.1 hPa East 7.7 km/h 20.8 km/h 87 % 0 mm 0 W/m2
01:55 -7.9 °C -9.2 °C 34554.1 hPa ENE 2.6 km/h 20.8 km/h 87 % 0 mm 0 W/m2
02:00 -7.9 °C -9.2 °C 34554.1 hPa ENE 10.3 km/h 20.8 km/h 87 % 0 mm 0 W/m2
02:10 -8.2 °C -9.3 °C 34544 hPa ENE 7.7 km/h 20.8 km/h 88 % 0 mm 0 W/m2
02:15 -8.2 °C -9.3 °C 34544 hPa East 5.1 km/h 18.2 km/h 88 % 0 mm 0 W/m2
02:20 -8.2 °C -9.3 °C 34544 hPa ENE 5.1 km/h 18.2 km/h 88 % 0 mm 0 W/m2
02:25 -8.3 °C -9.3 °C 34544 hPa ENE 7.7 km/h 18.2 km/h 89 % 0 mm 0 W/m2
02:30 -8.4 °C -9.4 °C 34544 hPa ENE 5.1 km/h 15.6 km/h 89 % 0 mm 0 W/m2
02:35 -8.6 °C -9.4 °C 34544 hPa ENE 7.7 km/h 15.6 km/h 90 % 0 mm 0 W/m2
02:40 -8.6 °C -9.5 °C 34544 hPa ENE 7.7 km/h 15.6 km/h 90 % 0 mm 0 W/m2
02:45 -8.7 °C -9.6 °C 34533.8 hPa East 2.6 km/h 15.6 km/h 90 % 0 mm 0 W/m2
02:50 -8.6 °C -9.4 °C 34533.8 hPa ENE 5.1 km/h 15.6 km/h 91 % 0 mm 0 W/m2
02:55 -8.6 °C -9.4 °C 34533.8 hPa Calm   12.9 km/h 91 % 0 mm 0 W/m2
03:00 -8.6 °C -9.4 °C 34533.8 hPa East 5.1 km/h 12.9 km/h 91 % 0 mm 0 W/m2
03:05 -8.7 °C -9.4 °C 34533.8 hPa East 5.1 km/h 12.9 km/h 91 % 0 mm 0 W/m2
03:10 -8.7 °C -9.6 °C 34520.3 hPa ENE 2.6 km/h 18.2 km/h 91 % 0 mm 0 W/m2
03:15 -8.8 °C -9.6 °C 34520.3 hPa ENE 5.1 km/h 18.2 km/h 91 % 0 mm 0 W/m2
03:20 -8.8 °C -9.7 °C 34520.3 hPa ENE 5.1 km/h 10.3 km/h 91 % 0 mm 0 W/m2
03:25 -9 °C -9.8 °C 34520.3 hPa Calm   10.3 km/h 91 % 0 mm 0 W/m2
03:30 -9.1 °C -9.8 °C 34520.3 hPa ENE 7.7 km/h 12.9 km/h 92 % 0 mm 0 W/m2
03:35 -9.1 °C -9.8 °C 34520.3 hPa Calm   12.9 km/h 92 % 0 mm 0 W/m2
03:40 -9.2 °C -9.8 °C 34520.3 hPa Calm   18.2 km/h 93 % 0 mm 0 W/m2
03:50 -9.3 °C -10 °C 34510.1 hPa Calm   7.7 km/h 92 % 0 mm 0 W/m2
03:55 -9.3 °C -9.9 °C 34510.1 hPa ENE 10.3 km/h 12.9 km/h 93 % 0 mm 0 W/m2
04:00 -9.4 °C -10 °C 34510.1 hPa ENE 10.3 km/h 15.6 km/h 93 % 0 mm 0 W/m2
04:05 -9.3 °C -9.8 °C 34510.1 hPa ENE 2.6 km/h 18.2 km/h 94 % 0 mm 0 W/m2
04:10 -9.2 °C -9.8 °C 34510.1 hPa NE 10.3 km/h 18.2 km/h 94 % 0 mm 0 W/m2
04:15 -9.2 °C -9.7 °C 34510.1 hPa East 5.1 km/h 12.9 km/h 94 % 0 mm 0 W/m2
04:20 -9.3 °C -9.9 °C 34520.3 hPa East 2.6 km/h 10.3 km/h 93 % 0 mm 0 W/m2
04:25 -9.4 °C -10 °C 34510.1 hPa Calm   10.3 km/h 93 % 0 mm 0 W/m2
04:30 -9.5 °C -10.1 °C 34510.1 hPa East 2.6 km/h 5.1 km/h 93 % 0 mm 0 W/m2
04:35 -9.6 °C -10.2 °C 34510.1 hPa East 5.1 km/h 7.7 km/h 94 % 0 mm 0 W/m2
04:40 -9.8 °C -10.4 °C 34510.1 hPa ENE 5.1 km/h 10.3 km/h 93 % 0 mm 0 W/m2
04:45 -9.7 °C -10.3 °C 34510.1 hPa ENE 2.6 km/h 10.3 km/h 94 % 0 mm 0 W/m2
04:50 -9.7 °C -10.2 °C 34510.1 hPa NE 2.6 km/h 7.7 km/h 94 % 0 mm 0 W/m2
04:55 -9.7 °C -10.3 °C 34510.1 hPa Calm   7.7 km/h 94 % 0 mm 0 W/m2
05:00 -9.8 °C -10.4 °C 34510.1 hPa NE 2.6 km/h 7.7 km/h 94 % 0 mm 0 W/m2
05:05 -9.9 °C -10.4 °C 34510.1 hPa Calm   7.7 km/h 95 % 0 mm 0 W/m2
05:10 -10.1 °C -10.4 °C 34510.1 hPa Calm   2.6 km/h 95 % 0 mm 0 W/m2
05:15 -10.1 °C -10.6 °C 34510.1 hPa Calm   5.1 km/h 95 % 0 mm 0 W/m2
05:20 -10.2 °C -10.6 °C 34510.1 hPa Calm   5.1 km/h 95 % 0 mm 0 W/m2
05:25 -10.2 °C -10.7 °C 34510.1 hPa Calm   5.1 km/h 95 % 0 mm 0 W/m2
05:30 -10.3 °C -10.7 °C 34510.1 hPa ENE 2.6 km/h 7.7 km/h 95 % 0 mm 0 W/m2
05:35 -10.3 °C -10.7 °C 34510.1 hPa ENE 2.6 km/h 7.7 km/h 96 % 0 mm 0 W/m2
05:40 -10.2 °C -10.5 °C 34510.1 hPa Calm   7.7 km/h 96 % 0 mm 0 W/m2
05:45 -10.2 °C -10.6 °C 34510.1 hPa ENE 2.6 km/h 7.7 km/h 96 % 0 mm 0 W/m2
05:50 -10.3 °C -10.6 °C 34510.1 hPa Calm   5.1 km/h 96 % 0 mm 0 W/m2
05:55 -10.3 °C -10.6 °C 34510.1 hPa Calm   5.1 km/h 96 % 0 mm 0 W/m2
06:00 -10.3 °C -10.7 °C 34496.6 hPa ENE 2.6 km/h 7.7 km/h 96 % 0 mm 0 W/m2
06:05 -10.4 °C -10.7 °C 34510.1 hPa ENE 5.1 km/h 7.7 km/h 96 % 0 mm 0 W/m2
06:10 -10.5 °C -10.8 °C 34510.1 hPa Calm   5.1 km/h 96 % 0 mm 0 W/m2
06:15 -10.5 °C -10.8 °C 34510.1 hPa Calm   7.7 km/h 96 % 0 mm 0 W/m2
06:20 -10.5 °C -10.9 °C 34496.6 hPa Calm   7.7 km/h 96 % 0 mm 0 W/m2
06:25 -10.5 °C -10.9 °C 34510.1 hPa Calm   5.1 km/h 96 % 0 mm 5 W/m2
06:30 -10.6 °C -10.9 °C 34510.1 hPa Calm   5.1 km/h 96 % 0 mm 7 W/m2
06:35 -10.7 °C -11 °C 34510.1 hPa ENE 5.1 km/h 7.7 km/h 96 % 0 mm 9 W/m2
06:40 -10.7 °C -11 °C 34510.1 hPa Calm   7.7 km/h 96 % 0 mm 11 W/m2
06:45 -10.6 °C -10.8 °C 34510.1 hPa Calm   7.7 km/h 97 % 0 mm 12 W/m2
06:50 -10.5 °C -10.8 °C 34510.1 hPa Calm   7.7 km/h 97 % 0 mm 16 W/m2
06:55 -10.5 °C -10.8 °C 34496.6 hPa ENE 2.6 km/h 7.7 km/h 97 % 0 mm 18 W/m2
07:00 -10.4 °C -10.6 °C 34496.6 hPa ENE 10.3 km/h 10.3 km/h 97 % 0 mm 19 W/m2
07:05 -10.2 °C -10.4 °C 34510.1 hPa Calm   12.9 km/h 97 % 0 mm 21 W/m2
07:10 -10.1 °C -10.3 °C 34510.1 hPa ENE 5.1 km/h 15.6 km/h 97 % 0 mm 23 W/m2
07:15 -9.9 °C -10.2 °C 34510.1 hPa ENE 18.2 km/h 18.2 km/h 97 % 0 mm 25 W/m2
07:20 -9.8 °C -10.1 °C 34510.1 hPa ENE 2.6 km/h 18.2 km/h 97 % 0 mm 26 W/m2
07:25 -9.7 °C -10 °C 34496.6 hPa ENE 10.3 km/h 25.9 km/h 97 % 0 mm 28 W/m2
07:30 -9.6 °C -9.9 °C 34496.6 hPa ENE 7.7 km/h 25.9 km/h 97 % 0 mm 30 W/m2
07:35 -9.5 °C -9.8 °C 34496.6 hPa East 15.6 km/h 25.9 km/h 97 % 0 mm 32 W/m2
07:40 -9.4 °C -9.8 °C 34496.6 hPa NE 7.7 km/h 23.3 km/h 96 % 0 mm 33 W/m2
07:45 -9.4 °C -9.7 °C 34496.6 hPa ENE 7.7 km/h 23.3 km/h 96 % 0 mm 35 W/m2
07:50 -9.3 °C -9.7 °C 34496.6 hPa East 12.9 km/h 25.9 km/h 96 % 0 mm 37 W/m2
07:55 -9.2 °C -9.6 °C 34496.6 hPa East 18.2 km/h 28.5 km/h 96 % 0 mm 39 W/m2
08:00 -9.1 °C -9.6 °C 34496.6 hPa East 20.8 km/h 28.5 km/h 95 % 0 mm 158 W/m2
08:05 -9.1 °C -9.5 °C 34496.6 hPa East 7.7 km/h 28.5 km/h 95 % 0 mm 223 W/m2
08:10 -8.9 °C -9.5 °C 34496.6 hPa NE 20.8 km/h 28.5 km/h 94 % 0 mm 234 W/m2
08:15 -8.8 °C -9.4 °C 34496.6 hPa East 12.9 km/h 25.9 km/h 94 % 0 mm 250 W/m2
08:20 -8.7 °C -9.3 °C 34496.6 hPa ENE 18.2 km/h 25.9 km/h 93 % 0 mm 264 W/m2
08:25 -8.5 °C -9.2 °C 34496.6 hPa ENE 7.7 km/h 28.5 km/h 92 % 0 mm 283 W/m2
08:30 -8.4 °C -9.2 °C 34496.6 hPa East 12.9 km/h 28.5 km/h 91 % 0 mm 297 W/m2
08:35 -8.2 °C -9.2 °C 34496.6 hPa ENE 12.9 km/h 25.9 km/h 90 % 0 mm 309 W/m2
08:40 -8.2 °C -9.2 °C 34496.6 hPa NE 12.9 km/h 28.5 km/h 89 % 0 mm 325 W/m2
08:45 -7.9 °C -9.1 °C 34496.6 hPa East 18.2 km/h 28.5 km/h 88 % 0 mm 269 W/m2
08:50 -7.8 °C -9.2 °C 34496.6 hPa East 15.6 km/h 28.5 km/h 86 % 0 mm 348 W/m2
08:55 -7.7 °C -9 °C 34496.6 hPa ENE 12.9 km/h 28.5 km/h 86 % 0 mm 366 W/m2
09:00 -7.6 °C -9.1 °C 34496.6 hPa ESE 5.1 km/h 38.8 km/h 84 % 0 mm 381 W/m2
09:05 -7.3 °C -8.8 °C 34496.6 hPa ESE 25.9 km/h 38.8 km/h 84 % 0 mm 396 W/m2
09:10 -7.2 °C -8.9 °C 34496.6 hPa East 20.8 km/h 33.6 km/h 82 % 0 mm 411 W/m2
09:15 -7.1 °C -9 °C 34496.6 hPa ENE 7.7 km/h 38.8 km/h 81 % 0 mm 424 W/m2
09:20 -7 °C -8.9 °C 34496.6 hPa NE 10.3 km/h 38.8 km/h 80 % 0 mm 439 W/m2
09:25 -6.8 °C -8.9 °C 34496.6 hPa ESE 10.3 km/h 33.6 km/h 79 % 0 mm 454 W/m2
09:30 -6.7 °C -8.9 °C 34496.6 hPa NE 7.7 km/h 33.6 km/h 78 % 0 mm 469 W/m2
09:35 -6.6 °C -8.9 °C 34496.6 hPa ESE 7.7 km/h 33.6 km/h 77 % 0 mm 485 W/m2
09:40 -6.4 °C -8.7 °C 34496.6 hPa ENE 2.6 km/h 28.5 km/h 77 % 0 mm 499 W/m2
09:45 -6.3 °C -8.8 °C 34496.6 hPa East 23.3 km/h 44.1 km/h 76 % 0 mm 515 W/m2
09:50 -6.3 °C -8.9 °C 34496.6 hPa East 23.3 km/h 44.1 km/h 74 % 0 mm 527 W/m2
10:00 -6 °C -8.7 °C 34496.6 hPa ENE 20.8 km/h 38.8 km/h 74 % 0 mm 554 W/m2
10:05 -5.9 °C -8.8 °C 34496.6 hPa East 20.8 km/h 38.8 km/h 73 % 0 mm 568 W/m2
10:10 -5.9 °C -8.7 °C 34486.4 hPa ESE 12.9 km/h 38.8 km/h 73 % 0 mm 584 W/m2
10:15 -5.8 °C -8.7 °C 34486.4 hPa ENE 12.9 km/h 36.2 km/h 72 % 0 mm 596 W/m2
10:20 -5.7 °C -8.7 °C 34486.4 hPa NE 12.9 km/h 33.6 km/h 71 % 0 mm 610 W/m2
10:25 -5.5 °C -8.6 °C 34486.4 hPa SE 20.8 km/h 36.2 km/h 71 % 0 mm 619 W/m2
10:30 -5.4 °C -8.5 °C 34486.4 hPa East 36.2 km/h 36.2 km/h 71 % 0 mm 631 W/m2
10:35 -5.4 °C -8.4 °C 34486.4 hPa ESE 7.7 km/h 36.2 km/h 71 % 0 mm 647 W/m2
10:40 -5.2 °C -8.3 °C 34486.4 hPa NE 12.9 km/h 36.2 km/h 71 % 0 mm 657 W/m2
10:45 -5.2 °C -8.5 °C 34486.4 hPa ESE 20.8 km/h 38.8 km/h 69 % 0 mm 671 W/m2
10:50 -5.1 °C -8.3 °C 34486.4 hPa ESE 12.9 km/h 38.8 km/h 70 % 0 mm 682 W/m2
10:55 -5.1 °C -8.4 °C 34486.4 hPa ENE 12.9 km/h 41.4 km/h 69 % 0 mm 696 W/m2
11:00 -4.9 °C -8.3 °C 34476.3 hPa ESE 10.3 km/h 41.4 km/h 69 % 0 mm 705 W/m2
11:05 -4.8 °C -8.2 °C 34476.3 hPa ESE 20.8 km/h 41.4 km/h 69 % 0 mm 715 W/m2
11:10 -4.8 °C -8.3 °C 34476.3 hPa ESE 23.3 km/h 41.4 km/h 68 % 0 mm 724 W/m2
11:15 -4.7 °C -8 °C 34476.3 hPa East 12.9 km/h 44.1 km/h 69 % 0 mm 738 W/m2
11:20 -4.5 °C -7.9 °C 34476.3 hPa East 12.9 km/h 44.1 km/h 68 % 0 mm 747 W/m2
11:25 -4.4 °C -8.3 °C 34462.7 hPa ESE 20.8 km/h 38.8 km/h 65 % 0 mm 759 W/m2
11:30 -4.3 °C -7.9 °C 34462.7 hPa East 33.6 km/h 44.1 km/h 67 % 0 mm 766 W/m2
11:35 -4.3 °C -8.4 °C 34462.7 hPa SE 28.5 km/h 49.2 km/h 63 % 0 mm 779 W/m2
11:40 -4.2 °C -8.3 °C 34462.7 hPa NE 15.6 km/h 57 km/h 64 % 0 mm 786 W/m2
11:45 -4.1 °C -8.3 °C 34462.7 hPa East 20.8 km/h 57 km/h 63 % 0 mm 796 W/m2
11:50 -4 °C -8.3 °C 34462.7 hPa ENE 12.9 km/h 41.4 km/h 62 % 0 mm 803 W/m2
11:55 -4 °C -8.3 °C 34462.7 hPa ESE 10.3 km/h 44.1 km/h 62 % 0 mm 809 W/m2
12:00 -3.8 °C -8.2 °C 34462.7 hPa SE 7.7 km/h 44.1 km/h 62 % 0 mm 821 W/m2
12:05 -3.7 °C -8.2 °C 34462.7 hPa East 23.3 km/h 38.8 km/h 61 % 0 mm 830 W/m2
12:10 -3.7 °C -8.2 °C 34462.7 hPa ENE 25.9 km/h 57 km/h 61 % 0 mm 835 W/m2
12:15 -3.7 °C -8.4 °C 34462.7 hPa ESE 23.3 km/h 57 km/h 59 % 0 mm 844 W/m2
12:20 -3.6 °C -8.1 °C 34462.7 hPa ENE 25.9 km/h 49.2 km/h 61 % 0 mm 849 W/m2
12:25 -3.5 °C -8.3 °C 34462.7 hPa SSE 15.6 km/h 49.2 km/h 59 % 0 mm 860 W/m2
12:30 -3.6 °C -8.7 °C 34462.7 hPa NE 15.6 km/h 49.2 km/h 57 % 0 mm 863 W/m2
12:35 -3.4 °C -8.3 °C 34462.7 hPa ESE 12.9 km/h 49.2 km/h 58 % 0 mm 874 W/m2
12:40 -3.3 °C -8.6 °C 34452.6 hPa SE 20.8 km/h 41.4 km/h 56 % 0 mm 874 W/m2
12:45 -3.2 °C -8.3 °C 34452.6 hPa SE 15.6 km/h 41.4 km/h 57 % 0 mm 877 W/m2
12:50 -3 °C -8.4 °C 34452.6 hPa ENE 10.3 km/h 36.2 km/h 55 % 0 mm 886 W/m2
12:55 -3 °C -8.2 °C 34452.6 hPa SSE 41.4 km/h 41.4 km/h 57 % 0 mm 888 W/m2
13:05 -3.1 °C -8.7 °C 34452.6 hPa ENE 23.3 km/h 41.4 km/h 54 % 0 mm 898 W/m2
13:10 -2.9 °C -8.3 °C 34452.6 hPa East 23.3 km/h 36.2 km/h 55 % 0 mm 895 W/m2
13:15 -2.9 °C -8.5 °C 34452.6 hPa ESE 31.1 km/h 44.1 km/h 54 % 0 mm 898 W/m2
13:20 -2.8 °C -8.1 °C 34442.4 hPa East 28.5 km/h 44.1 km/h 56 % 0 mm 907 W/m2
13:25 -2.7 °C -8.8 °C 34442.4 hPa East 25.9 km/h 46.7 km/h 51 % 0 mm 907 W/m2
13:30 -2.8 °C -8.7 °C 34442.4 hPa East 18.2 km/h 46.7 km/h 52 % 0 mm 911 W/m2
13:35 -2.7 °C -8.4 °C 34442.4 hPa SE 23.3 km/h 44.1 km/h 53 % 0 mm 911 W/m2
13:45 -2.7 °C -8.8 °C 34428.8 hPa ESE 18.2 km/h 54.4 km/h 51 % 0 mm 911 W/m2
13:50 -2.6 °C -8.7 °C 34428.8 hPa ENE 12.9 km/h 54.4 km/h 51 % 0 mm 914 W/m2
13:55 -2.3 °C -8.8 °C 34428.8 hPa East 28.5 km/h 49.2 km/h 49 % 0 mm 912 W/m2
14:00 -2.4 °C -8.1 °C 34428.8 hPa SE 18.2 km/h 49.2 km/h 54 % 0 mm 914 W/m2
14:05 -2.4 °C -8.9 °C 34428.8 hPa East 7.7 km/h 46.7 km/h 49 % 0 mm 909 W/m2
14:10 -2.4 °C -8.9 °C 34428.8 hPa ESE 18.2 km/h 41.4 km/h 49 % 0 mm 909 W/m2
14:15 -2.3 °C -8.8 °C 34428.8 hPa ENE 18.2 km/h 41.4 km/h 49 % 0 mm 904 W/m2
14:20 -2.3 °C -8.9 °C 34428.8 hPa SE 18.2 km/h 41.4 km/h 48 % 0 mm 904 W/m2
14:25 -2.2 °C -8.6 °C 34428.8 hPa SE 23.3 km/h 41.4 km/h 50 % 0 mm 909 W/m2
14:30 -2.2 °C -9.1 °C 34418.7 hPa East 20.8 km/h 44.1 km/h 47 % 0 mm 904 W/m2
14:35 -2.1 °C -8.7 °C 34418.7 hPa NE 20.8 km/h 49.2 km/h 49 % 0 mm 896 W/m2
14:40 -2.1 °C -8.4 °C 34418.7 hPa ESE 23.3 km/h 49.2 km/h 50 % 0 mm 898 W/m2
14:45 -2 °C -8.3 °C 34418.7 hPa SE 23.3 km/h 49.2 km/h 50 % 0 mm 895 W/m2
14:50 -1.9 °C -8.5 °C 34418.7 hPa East 36.2 km/h 46.7 km/h 49 % 0 mm 893 W/m2
14:55 -2 °C -8.3 °C 34405.1 hPa ESE 20.8 km/h 46.7 km/h 50 % 0 mm 889 W/m2
15:00 -1.9 °C -8.8 °C 34405.1 hPa ESE 18.2 km/h 44.1 km/h 47 % 0 mm 888 W/m2
15:05 -2 °C -8.5 °C 34405.1 hPa East 23.3 km/h 44.1 km/h 49 % 0 mm 881 W/m2
15:10 -2 °C -8.3 °C 34405.1 hPa ESE 23.3 km/h 46.7 km/h 50 % 0 mm 877 W/m2
15:15 -1.9 °C -8.6 °C 34405.1 hPa ESE 23.3 km/h 46.7 km/h 48 % 0 mm 868 W/m2
15:20 -1.8 °C -8.5 °C 34405.1 hPa ESE 20.8 km/h 44.1 km/h 48 % 0 mm 863 W/m2
15:25 -1.8 °C -8.7 °C 34405.1 hPa SE 36.2 km/h 44.1 km/h 47 % 0 mm 858 W/m2
15:30 -1.8 °C -9.1 °C 34395 hPa ESE 20.8 km/h 38.8 km/h 45 % 0 mm 854 W/m2
15:35 -1.8 °C -8.3 °C 34395 hPa ESE 28.5 km/h 41.4 km/h 49 % 0 mm 844 W/m2
15:40 -1.8 °C -8.7 °C 34395 hPa ESE 10.3 km/h 44.1 km/h 47 % 0 mm 837 W/m2
15:45 -1.8 °C -8.3 °C 34395 hPa East 12.9 km/h 44.1 km/h 49 % 0 mm 831 W/m2
15:50 -1.6 °C -8.6 °C 34384.8 hPa NE 10.3 km/h 41.4 km/h 47 % 0 mm 824 W/m2
15:55 -1.6 °C -8.7 °C 34384.8 hPa ESE 18.2 km/h 41.4 km/h 46 % 0 mm 812 W/m2
16:00 -1.7 °C -8.8 °C 34384.8 hPa SE 25.9 km/h 41.4 km/h 46 % 0 mm 810 W/m2
16:05 -1.6 °C -8.9 °C 34384.8 hPa ENE 10.3 km/h 41.4 km/h 45 % 0 mm 800 W/m2
16:10 -1.6 °C -8.1 °C 34371.3 hPa ENE 12.9 km/h 46.7 km/h 49 % 0 mm 793 W/m2
16:15 -1.4 °C -8.5 °C 34371.3 hPa ESE 15.6 km/h 46.7 km/h 46 % 0 mm 786 W/m2
16:20 -1.6 °C -8.8 °C 34371.3 hPa ESE 20.8 km/h 44.1 km/h 45 % 0 mm 775 W/m2
16:25 -1.6 °C -8.1 °C 34371.3 hPa NE 12.9 km/h 46.7 km/h 49 % 0 mm 765 W/m2
16:30 -1.4 °C -8.5 °C 34371.3 hPa ESE 20.8 km/h 46.7 km/h 46 % 0 mm 756 W/m2
16:35 -1.4 °C -8.7 °C 34371.3 hPa ESE 31.1 km/h 44.1 km/h 45 % 0 mm 745 W/m2
16:40 -1.5 °C -8.6 °C 34371.3 hPa East 18.2 km/h 38.8 km/h 46 % 0 mm 737 W/m2
16:45 -1.4 °C -8.7 °C 34371.3 hPa East 41.4 km/h 49.2 km/h 45 % 0 mm 722 W/m2
16:50 -1.5 °C -9 °C 34371.3 hPa East 25.9 km/h 59.5 km/h 44 % 0 mm 712 W/m2
16:55 -1.5 °C -8.4 °C 34361.1 hPa East 38.8 km/h 59.5 km/h 47 % 0 mm 700 W/m2
17:00 -1.4 °C -9.2 °C 34361.1 hPa East 23.3 km/h 49.2 km/h 43 % 0 mm 689 W/m2
17:05 -1.6 °C -8.7 °C 34361.1 hPa East 23.3 km/h 49.2 km/h 46 % 0 mm 679 W/m2
17:10 -1.4 °C -8.6 °C 34361.1 hPa ESE 20.8 km/h 46.7 km/h 46 % 0 mm 668 W/m2
17:15 -1.3 °C -8.9 °C 34361.1 hPa ESE 7.7 km/h 46.7 km/h 44 % 0 mm 656 W/m2
17:20 -1.4 °C -9.1 °C 34361.1 hPa East 41.4 km/h 51.8 km/h 43 % 0 mm 645 W/m2
17:25 -1.4 °C -9.1 °C 34361.1 hPa SE 12.9 km/h 51.8 km/h 43 % 0 mm 635 W/m2
17:30 -1.4 °C -8.9 °C 34361.1 hPa ESE 25.9 km/h 44.1 km/h 44 % 0 mm 622 W/m2
17:35 -1.4 °C -8.7 °C 34347.6 hPa East 25.9 km/h 38.8 km/h 45 % 0 mm 606 W/m2
17:40 -1.3 °C -9.3 °C 34347.6 hPa SE 23.3 km/h 38.8 km/h 42 % 0 mm 596 W/m2
17:45 -1.4 °C -9.1 °C 34347.6 hPa ESE 31.1 km/h 44.1 km/h 43 % 0 mm 582 W/m2
17:50 -1.5 °C -9.2 °C 34347.6 hPa SE 20.8 km/h 44.1 km/h 43 % 0 mm 571 W/m2
17:55 -1.5 °C -8.6 °C 34347.6 hPa ENE 18.2 km/h 44.1 km/h 46 % 0 mm 555 W/m2
18:00 -1.4 °C -8.7 °C 34347.6 hPa ENE 23.3 km/h 44.1 km/h 45 % 0 mm 541 W/m2
18:05 -1.5 °C -9 °C 34347.6 hPa ENE 5.1 km/h 44.1 km/h 44 % 0 mm 529 W/m2
18:15 -1.5 °C -8.6 °C 34347.6 hPa East 23.3 km/h 41.4 km/h 46 % 0 mm 501 W/m2
18:20 -1.6 °C -8.7 °C 34347.6 hPa ESE 18.2 km/h 41.4 km/h 46 % 0 mm 485 W/m2
18:25 -1.6 °C -8.7 °C 34337.4 hPa East 20.8 km/h 46.7 km/h 46 % 0 mm 473 W/m2
18:30 -1.6 °C -8.3 °C 34337.4 hPa East 7.7 km/h 46.7 km/h 48 % 0 mm 459 W/m2
18:35 -1.6 °C -8.7 °C 34337.4 hPa ESE 23.3 km/h 38.8 km/h 46 % 0 mm 443 W/m2
18:40 -1.5 °C -8.4 °C 34337.4 hPa ESE 7.7 km/h 38.8 km/h 47 % 0 mm 431 W/m2
18:45 -1.4 °C -8.6 °C 34337.4 hPa East 25.9 km/h 38.8 km/h 46 % 0 mm 417 W/m2
18:50 -1.5 °C -8.6 °C 34337.4 hPa ESE 7.7 km/h 36.2 km/h 46 % 0 mm 399 W/m2
18:55 -1.6 °C -8.4 °C 34327.3 hPa ENE 12.9 km/h 38.8 km/h 48 % 0 mm 383 W/m2
19:00 -1.7 °C -8.4 °C 34327.3 hPa East 20.8 km/h 38.8 km/h 48 % 0 mm 374 W/m2
19:05 -1.7 °C -8.4 °C 34327.3 hPa East 12.9 km/h 33.6 km/h 48 % 0 mm 359 W/m2
19:10 -1.7 °C -8.7 °C 34327.3 hPa ESE 12.9 km/h 36.2 km/h 47 % 0 mm 345 W/m2
19:15 -1.7 °C -8.8 °C 34327.3 hPa SE 18.2 km/h 36.2 km/h 46 % 0 mm 330 W/m2
19:20 -1.7 °C -8.8 °C 34327.3 hPa East 20.8 km/h 38.8 km/h 46 % 0 mm 316 W/m2
19:25 -1.8 °C -8.7 °C 34327.3 hPa East 7.7 km/h 38.8 km/h 47 % 0 mm 301 W/m2
19:30 -1.8 °C -8.6 °C 34327.3 hPa ENE 2.6 km/h 33.6 km/h 48 % 0 mm 290 W/m2
19:35 -1.9 °C -8.7 °C 34327.3 hPa ESE 12.9 km/h 31.1 km/h 48 % 0 mm 274 W/m2
19:40 -2.1 °C -8.6 °C 34327.3 hPa East 28.5 km/h 33.6 km/h 49 % 0 mm 253 W/m2
19:45 -2.1 °C -8.7 °C 34313.7 hPa NE 25.9 km/h 33.6 km/h 49 % 0 mm 229 W/m2
19:50 -2.2 °C -8.7 °C 34313.7 hPa East 15.6 km/h 33.6 km/h 49 % 0 mm 204 W/m2
19:55 -2.3 °C -8.6 °C 34313.7 hPa ENE 10.3 km/h 33.6 km/h 50 % 0 mm 183 W/m2
20:00 -2.4 °C -8.8 °C 34313.7 hPa ESE 15.6 km/h 44.1 km/h 50 % 0 mm 167 W/m2
20:05 -2.6 °C -8.7 °C 34313.7 hPa ESE 25.9 km/h 44.1 km/h 51 % 0 mm 156 W/m2
20:10 -2.6 °C -8.6 °C 34313.7 hPa ESE 10.3 km/h 36.2 km/h 52 % 0 mm 148 W/m2
20:15 -2.7 °C -8.6 °C 34313.7 hPa East 7.7 km/h 33.6 km/h 52 % 0 mm 141 W/m2
20:20 -2.8 °C -8.7 °C 34313.7 hPa East 7.7 km/h 33.6 km/h 52 % 0 mm 123 W/m2
20:25 -2.9 °C -8.7 °C 34313.7 hPa NE 2.6 km/h 33.6 km/h 53 % 0 mm 104 W/m2
20:30 -3 °C -8.6 °C 34313.7 hPa SE 5.1 km/h 33.6 km/h 54 % 0 mm 47 W/m2
20:40 -3.2 °C -8.6 °C 34327.3 hPa East 12.9 km/h 25.9 km/h 55 % 0 mm 33 W/m2
20:45 -3.3 °C -8.6 °C 34313.7 hPa SE 7.7 km/h 25.9 km/h 56 % 0 mm 26 W/m2
20:50 -3.4 °C -8.5 °C 34327.3 hPa East 2.6 km/h 20.8 km/h 57 % 0 mm 25 W/m2
20:55 -3.5 °C -8.6 °C 34327.3 hPa ENE 5.1 km/h 23.3 km/h 57 % 0 mm 23 W/m2
21:00 -3.6 °C -8.6 °C 34327.3 hPa East 12.9 km/h 23.3 km/h 58 % 0 mm 21 W/m2
21:05 -3.7 °C -8.6 °C 34327.3 hPa East 15.6 km/h 25.9 km/h 58 % 0 mm 19 W/m2
21:10 -3.8 °C -8.7 °C 34327.3 hPa East 12.9 km/h 25.9 km/h 58 % 0 mm 18 W/m2
21:15 -3.8 °C -8.6 °C 34327.3 hPa ENE 5.1 km/h 23.3 km/h 59 % 0 mm 16 W/m2
21:20 -3.9 °C -8.7 °C 34327.3 hPa ENE 7.7 km/h 23.3 km/h 59 % 0 mm 14 W/m2
21:25 -4.1 °C -8.7 °C 34327.3 hPa East 5.1 km/h 23.3 km/h 60 % 0 mm 12 W/m2
21:30 -4.1 °C -8.7 °C 34327.3 hPa East 2.6 km/h 20.8 km/h 60 % 0 mm 11 W/m2
21:35 -4.2 °C -8.8 °C 34327.3 hPa Calm   20.8 km/h 60 % 0 mm 9 W/m2
21:40 -4.3 °C -8.7 °C 34327.3 hPa East 2.6 km/h 20.8 km/h 61 % 0 mm 7 W/m2
21:45 -4.4 °C -8.7 °C 34327.3 hPa ENE 2.6 km/h 18.2 km/h 62 % 0 mm 5 W/m2
21:50 -4.6 °C -8.7 °C 34327.3 hPa East 5.1 km/h 12.9 km/h 63 % 0 mm 0 W/m2
21:55 -4.8 °C -8.8 °C 34327.3 hPa Calm   12.9 km/h 64 % 0 mm 0 W/m2
22:00 -4.9 °C -8.8 °C 34327.3 hPa ENE 5.1 km/h 20.8 km/h 65 % 0 mm 0 W/m2
22:10 -5.1 °C -8.7 °C 34327.3 hPa ENE 7.7 km/h 15.6 km/h 66 % 0 mm 0 W/m2
22:15 -5.2 °C -8.7 °C 34327.3 hPa East 5.1 km/h 18.2 km/h 67 % 0 mm 0 W/m2
22:20 -5.2 °C -8.8 °C 34337.4 hPa NE 5.1 km/h 18.2 km/h 67 % 0 mm 0 W/m2
22:25 -5.3 °C -8.8 °C 34337.4 hPa East 5.1 km/h 18.2 km/h 67 % 0 mm 0 W/m2
22:30 -5.3 °C -8.8 °C 34337.4 hPa ENE 5.1 km/h 12.9 km/h 68 % 0 mm 0 W/m2
22:35 -5.4 °C -8.8 °C 34337.4 hPa ESE 7.7 km/h 18.2 km/h 68 % 0 mm 0 W/m2
22:40 -5.6 °C -8.9 °C 34337.4 hPa East 10.3 km/h 18.2 km/h 69 % 0 mm 0 W/m2
22:45 -5.8 °C -8.9 °C 34337.4 hPa ENE 5.1 km/h 18.2 km/h 70 % 0 mm 0 W/m2
22:50 -5.8 °C -8.8 °C 34337.4 hPa East 5.1 km/h 12.9 km/h 71 % 0 mm 0 W/m2
22:55 -5.8 °C -8.9 °C 34337.4 hPa East 7.7 km/h 18.2 km/h 71 % 0 mm 0 W/m2
23:00 -5.8 °C -8.9 °C 34337.4 hPa East 12.9 km/h 18.2 km/h 71 % 0 mm 0 W/m2
23:05 -5.8 °C -8.9 °C 34337.4 hPa NE 10.3 km/h 20.8 km/h 71 % 0 mm 0 W/m2
23:10 -5.9 °C -8.9 °C 34337.4 hPa ENE 5.1 km/h 20.8 km/h 71 % 0 mm 0 W/m2
23:15 -5.9 °C -8.8 °C 34347.6 hPa ENE 2.6 km/h 18.2 km/h 72 % 0 mm 0 W/m2
23:20 -5.9 °C -8.9 °C 34347.6 hPa East 10.3 km/h 18.2 km/h 72 % 0 mm 0 W/m2
23:25 -6.1 °C -8.9 °C 34347.6 hPa ENE 7.7 km/h 18.2 km/h 72 % 0 mm 0 W/m2
23:30 -6.1 °C -8.9 °C 34347.6 hPa ENE 2.6 km/h 18.2 km/h 73 % 0 mm 0 W/m2
23:35 -6.1 °C -8.9 °C 34347.6 hPa East 12.9 km/h 18.2 km/h 73 % 0 mm 0 W/m2
23:40 -6.2 °C -8.9 °C 34347.6 hPa ENE 10.3 km/h 15.6 km/h 73 % 0 mm 0 W/m2
23:45 -6.2 °C -9 °C 34347.6 hPa ENE 10.3 km/h 18.2 km/h 73 % 0 mm 0 W/m2
23:50 -6.3 °C -9 °C 34347.6 hPa ENE 12.9 km/h 18.2 km/h 74 % 0 mm 0 W/m2
23:55 -6.4 °C -8.9 °C 34347.6 hPa Calm   18.2 km/h 75 % 0 mm 0 W/m2
Avec l'autorisation de Weather Underground - 1.75 mb